Time;durP1;ratioP1;P1;durP2;ratioP2;P2;SDS_P1;SDS_P2;PMS_P1;PMS_P2;Temp;Humidity;BMP_temperature;BMP_pressure;BME280_temperature;BME280_humidity;BME280_pressure;Samples;Min_cycle;Max_cycle;Signal;HPM_P1;HPM_P2
2023/10/08 00:02:11;;;;;;;4.55;2.63;;;20.90;44.50;;;;;;5108670;27;45576;-72
2023/10/08 00:04:38;;;;;;;5.50;2.97;;;20.90;44.50;;;;;;5108843;27;45611;-72
2023/10/08 00:07:07;;;;;;;4.35;2.55;;;20.90;44.50;;;;;;5108668;27;45306;-72
2023/10/08 00:09:36;;;;;;;4.03;2.40;;;20.80;45.10;;;;;;5108773;27;45572;-72
2023/10/08 00:12:03;;;;;;;3.95;2.35;;;20.80;44.60;;;;;;5108408;27;46372;-72
2023/10/08 00:14:32;;;;;;;5.10;2.83;;;20.80;44.60;;;;;;5108520;27;45322;-73
2023/10/08 00:17:00;;;;;;;5.30;2.78;;;20.80;44.60;;;;;;5108464;27;45397;-72
2023/10/08 00:19:33;;;;;;;5.10;3.03;;;20.80;44.60;;;;;;5108252;27;45484;-72
2023/10/08 00:22:05;;;;;;;4.32;2.38;;;20.70;44.60;;;;;;5108286;27;47397;-72
2023/10/08 00:24:33;;;;;;;6.38;3.00;;;20.70;44.60;;;;;;5108033;27;45317;-72
2023/10/08 00:27:00;;;;;;;6.25;2.70;;;20.70;44.70;;;;;;5108620;27;45340;-72
2023/10/08 00:29:31;;;;;;;6.95;3.95;;;20.70;44.60;;;;;;5108624;27;45547;-72
2023/10/08 00:31:58;;;;;;;4.72;2.63;;;20.70;44.70;;;;;;5107780;27;47564;-72
2023/10/08 00:34:27;;;;;;;5.72;2.70;;;20.60;44.70;;;;;;5107385;27;45399;-72
2023/10/08 00:36:54;;;;;;;3.53;2.35;;;20.60;44.70;;;;;;5107691;27;45138;-72
2023/10/08 00:39:23;;;;;;;4.88;2.65;;;20.60;44.70;;;;;;5108535;27;45150;-73
2023/10/08 00:41:54;;;;;;;4.13;2.35;;;20.60;44.80;;;;;;5107701;27;45471;-72
2023/10/08 00:44:29;;;;;;;5.60;2.92;;;20.60;45.40;;;;;;5107886;27;44753;-72
2023/10/08 00:46:57;;;;;;;5.15;2.17;;;20.60;44.80;;;;;;5107332;27;45304;-72
2023/10/08 00:49:37;;;;;;;4.00;2.20;;;20.50;44.80;;;;;;5108490;27;45442;-72
2023/10/08 00:52:26;;;;;;;4.25;3.10;;;20.50;44.80;;;;;;5108301;27;45249;-72
2023/10/08 00:55:06;;;;;;;5.57;2.72;;;20.50;44.90;;;;;;5107914;27;45277;-72
2023/10/08 00:57:36;;;;;;;4.22;2.30;;;20.50;44.90;;;;;;5108684;27;45415;-72
2023/10/08 01:00:06;;;;;;;6.28;2.60;;;20.50;44.90;;;;;;5108571;27;45346;-72
2023/10/08 01:02:44;;;;;;;3.50;2.30;;;20.50;45.00;;;;;;5107640;27;45484;-72
2023/10/08 01:05:14;;;;;;;3.15;2.28;;;20.40;45.00;;;;;;5107836;27;45330;-72
2023/10/08 01:07:44;;;;;;;4.85;2.40;;;20.40;45.00;;;;;;5108166;27;45387;-72
2023/10/08 01:10:13;;;;;;;4.40;2.28;;;20.40;45.00;;;;;;5108418;27;45310;-72
2023/10/08 01:12:54;;;;;;;4.00;2.45;;;20.40;45.00;;;;;;5107565;27;45311;-72
2023/10/08 01:15:28;;;;;;;3.85;2.50;;;20.40;45.10;;;;;;5107564;27;45212;-72
2023/10/08 01:18:00;;;;;;;4.38;2.60;;;20.40;45.00;;;;;;5107759;27;45376;-72
2023/10/08 01:20:36;;;;;;;3.63;2.30;;;20.40;45.10;;;;;;5107700;27;45381;-72
2023/10/08 01:23:09;;;;;;;5.05;2.40;;;20.30;45.00;;;;;;5107543;27;46418;-72
2023/10/08 01:25:39;;;;;;;4.50;2.40;;;20.30;45.00;;;;;;5107440;27;45397;-72
2023/10/08 01:28:14;;;;;;;3.35;2.38;;;20.30;45.00;;;;;;5107636;27;45134;-72
2023/10/08 01:30:42;;;;;;;3.58;2.40;;;20.30;45.10;;;;;;5107509;27;45345;-72
2023/10/08 01:33:13;;;;;;;5.80;2.47;;;20.30;45.00;;;;;;5107608;27;45370;-72
2023/10/08 01:35:40;;;;;;;3.67;2.33;;;20.20;45.00;;;;;;5107234;27;45315;-72
2023/10/08 01:38:13;;;;;;;4.30;2.40;;;20.20;45.10;;;;;;5107111;27;45284;-71
2023/10/08 01:40:41;;;;;;;4.40;2.22;;;20.20;45.10;;;;;;5107448;27;45298;-71
2023/10/08 01:43:08;;;;;;;4.63;2.47;;;20.20;45.70;;;;;;5107334;27;46680;-71
2023/10/08 01:45:40;;;;;;;4.68;2.47;;;20.20;45.10;;;;;;5107268;27;45362;-72
2023/10/08 01:48:09;;;;;;;2.72;2.15;;;20.20;45.20;;;;;;5107483;27;45279;-72
2023/10/08 01:50:36;;;;;;;4.40;2.40;;;20.20;45.20;;;;;;5107542;27;45381;-72
2023/10/08 01:53:06;;;;;;;4.00;2.70;;;20.10;45.20;;;;;;5106856;27;45362;-72
2023/10/08 01:55:45;;;;;;;4.22;2.47;;;20.10;45.20;;;;;;5107053;27;45295;-72
2023/10/08 01:58:16;;;;;;;4.00;2.53;;;20.10;45.20;;;;;;5109192;27;45358;-72
2023/10/08 02:00:45;;;;;;;3.38;2.35;;;20.10;45.20;;;;;;5111241;27;45306;-73
2023/10/08 02:03:12;;;;;;;5.10;2.55;;;20.10;45.30;;;;;;5110671;27;45532;-73
2023/10/08 02:05:41;;;;;;;4.43;2.78;;;20.00;45.30;;;;;;5110704;27;45304;-72
2023/10/08 02:08:09;;;;;;;3.75;2.40;;;20.00;45.30;;;;;;5110644;27;45185;-72
2023/10/08 02:10:38;;;;;;;3.78;2.30;;;20.00;45.30;;;;;;5110591;27;45431;-72
2023/10/08 02:13:06;;;;;;;3.97;2.40;;;20.00;45.90;;;;;;5109809;27;46423;-72
2023/10/08 02:15:32;;;;;;;3.38;2.38;;;20.00;45.30;;;;;;5110069;27;45271;-72
2023/10/08 02:17:59;;;;;;;3.90;2.65;;;20.00;45.30;;;;;;5110370;27;45461;-72
2023/10/08 02:20:27;;;;;;;4.05;2.75;;;20.00;45.30;;;;;;5110418;27;45423;-72
2023/10/08 02:22:54;;;;;;;4.72;2.40;;;19.90;45.30;;;;;;5110051;27;46340;-72
2023/10/08 02:25:22;;;;;;;3.67;2.45;;;20.00;45.40;;;;;;5110189;27;45248;-72
2023/10/08 02:27:51;;;;;;;5.00;2.85;;;19.90;45.90;;;;;;5110428;27;45394;-72
2023/10/08 02:30:18;;;;;;;4.97;2.45;;;19.90;45.40;;;;;;5110105;27;45405;-72
2023/10/08 02:32:46;;;;;;;3.17;2.20;;;19.90;45.30;;;;;;5110595;27;45137;-72
2023/10/08 02:35:13;;;;;;;3.63;2.40;;;19.90;45.30;;;;;;5110104;27;45253;-72
2023/10/08 02:37:40;;;;;;;4.80;2.50;;;19.90;45.40;;;;;;5110334;27;45373;-73
2023/10/08 02:40:16;;;;;;;4.55;2.35;;;19.90;45.40;;;;;;5110786;27;45400;-73
2023/10/08 02:42:44;;;;;;;4.13;2.10;;;19.90;45.30;;;;;;5110004;27;45474;-73
2023/10/08 02:45:13;;;;;;;3.67;2.25;;;19.90;45.40;;;;;;5110012;27;45230;-72
2023/10/08 02:47:44;;;;;;;2.67;2.03;;;19.80;45.40;;;;;;5110049;27;45469;-72
2023/10/08 02:50:12;;;;;;;3.90;2.15;;;19.80;45.40;;;;;;5110384;27;45381;-72
2023/10/08 02:52:38;;;;;;;2.88;1.88;;;19.80;45.40;;;;;;5110149;27;46425;-72
2023/10/08 02:55:18;;;;;;;3.30;2.13;;;19.80;45.50;;;;;;5109730;27;45421;-72
2023/10/08 02:57:45;;;;;;;4.97;2.42;;;19.80;45.50;;;;;;5109932;27;45255;-72
2023/10/08 03:00:15;;;;;;;3.88;2.03;;;19.80;45.50;;;;;;5110363;27;45299;-72
2023/10/08 03:02:42;;;;;;;2.33;1.88;;;19.70;45.50;;;;;;5110208;27;46379;-72
2023/10/08 03:05:13;;;;;;;4.70;2.20;;;19.80;45.50;;;;;;5109303;27;45388;-72
2023/10/08 03:07:40;;;;;;;4.38;2.15;;;19.70;45.50;;;;;;5109249;27;45502;-72
2023/10/08 03:10:17;;;;;;;4.15;2.33;;;19.70;45.50;;;;;;5109438;27;45399;-72
2023/10/08 03:12:46;;;;;;;3.53;2.50;;;19.70;45.50;;;;;;5109265;27;45681;-72
2023/10/08 03:15:27;;;;;;;3.55;2.35;;;19.70;45.50;;;;;;5109815;27;45238;-72
2023/10/08 03:17:57;;;;;;;3.47;2.33;;;19.70;45.60;;;;;;5109905;27;45377;-72
2023/10/08 03:20:38;;;;;;;4.45;2.35;;;19.60;45.60;;;;;;5109822;27;45474;-72
2023/10/08 03:23:11;;;;;;;2.40;2.03;;;19.60;45.60;;;;;;5109426;27;45531;-72
2023/10/08 03:25:41;;;;;;;3.63;2.10;;;19.60;45.60;;;;;;5109355;27;45477;-72
2023/10/08 03:28:12;;;;;;;3.90;2.10;;;19.60;45.60;;;;;;5109512;27;45358;-72
2023/10/08 03:30:50;;;;;;;4.03;2.00;;;19.60;45.70;;;;;;5109591;27;45314;-72
2023/10/08 03:33:23;;;;;;;3.58;2.33;;;19.60;45.70;;;;;;5109304;27;45429;-72
2023/10/08 03:35:52;;;;;;;2.53;2.00;;;19.60;45.70;;;;;;5109401;27;45485;-72
2023/10/08 03:38:27;;;;;;;3.28;2.22;;;19.60;45.70;;;;;;5109411;27;45241;-72
2023/10/08 03:40:57;;;;;;;4.20;2.38;;;19.60;45.70;;;;;;5109868;27;45525;-72
2023/10/08 03:43:33;;;;;;;3.45;2.33;;;19.50;45.70;;;;;;5108836;27;46810;-72
2023/10/08 03:46:05;;;;;;;3.70;2.25;;;19.60;45.80;;;;;;5109005;27;45188;-72
2023/10/08 03:48:38;;;;;;;4.05;2.30;;;19.50;45.80;;;;;;5109348;27;45367;-73
2023/10/08 03:51:11;;;;;;;3.28;2.05;;;19.50;45.80;;;;;;5109498;27;45425;-72
2023/10/08 03:53:57;;;;;;;3.38;2.17;;;19.50;45.80;;;;;;5109054;27;46332;-73
2023/10/08 03:56:26;;;;;;;4.25;2.17;;;19.50;45.90;;;;;;5109381;27;45241;-73
2023/10/08 03:58:54;;;;;;;2.80;1.88;;;19.50;45.80;;;;;;5109767;27;45310;-72
2023/10/08 04:01:24;;;;;;;4.10;2.15;;;19.50;45.90;;;;;;5109692;27;45352;-72
2023/10/08 04:03:58;;;;;;;3.75;2.33;;;19.50;45.90;;;;;;5109167;27;45559;-72
2023/10/08 04:06:30;;;;;;;3.38;2.10;;;19.40;45.80;;;;;;5109111;27;45390;-72
2023/10/08 04:09:11;;;;;;;2.80;1.98;;;19.40;45.80;;;;;;5109032;27;45333;-73
2023/10/08 04:11:51;;;;;;;4.50;2.17;;;19.40;45.90;;;;;;5109231;27;45643;-72
2023/10/08 04:14:19;;;;;;;4.00;2.13;;;19.40;45.80;;;;;;5108721;27;46686;-73
2023/10/08 04:16:51;;;;;;;3.38;2.13;;;19.30;45.90;;;;;;5108787;27;45393;-72
2023/10/08 04:19:18;;;;;;;4.53;2.03;;;19.40;45.90;;;;;;5108970;27;45273;-72
2023/10/08 04:21:49;;;;;;;4.07;2.10;;;19.40;45.90;;;;;;5108007;27;45373;-72
2023/10/08 04:24:19;;;;;;;3.88;2.08;;;19.30;45.90;;;;;;5108807;27;45355;-73
2023/10/08 04:26:46;;;;;;;3.75;2.22;;;19.30;45.90;;;;;;5108515;27;46201;-73
2023/10/08 04:29:16;;;;;;;3.28;1.98;;;19.30;45.90;;;;;;5109139;27;45292;-72
2023/10/08 04:31:46;;;;;;;3.80;2.33;;;19.30;45.90;;;;;;5108938;27;45249;-73
2023/10/08 04:34:16;;;;;;;3.97;1.88;;;19.30;45.90;;;;;;5108159;27;46565;-72
2023/10/08 04:36:45;;;;;;;2.53;2.20;;;19.30;45.90;;;;;;5108518;27;45314;-73
2023/10/08 04:39:15;;;;;;;4.05;2.20;;;19.30;46.00;;;;;;5108537;27;45394;-72
2023/10/08 04:41:43;;;;;;;2.75;2.10;;;19.30;46.00;;;;;;5108380;27;45279;-72
2023/10/08 04:44:15;;;;;;;3.63;1.98;;;19.30;46.00;;;;;;5108179;27;45460;-72
2023/10/08 04:46:51;;;;;;;4.05;2.17;;;19.20;46.00;;;;;;5108037;27;45328;-71
2023/10/08 04:49:27;;;;;;;3.58;2.00;;;19.20;45.90;;;;;;5108021;27;45188;-72
2023/10/08 04:51:56;;;;;;;3.10;1.80;;;19.20;45.90;;;;;;5108253;27;45210;-72
2023/10/08 04:54:25;;;;;;;3.65;1.92;;;19.20;46.00;;;;;;5107727;27;46631;-72
2023/10/08 04:56:53;;;;;;;3.75;2.15;;;19.20;46.00;;;;;;5107374;27;45335;-72
2023/10/08 04:59:22;;;;;;;2.50;2.00;;;19.20;46.00;;;;;;5107217;27;45318;-71
2023/10/08 05:02:12;;;;;;;4.45;2.25;;;19.20;46.00;;;;;;5107826;27;45454;-72
2023/10/08 05:04:55;;;;;;;5.20;2.63;;;19.10;46.00;;;;;;5106603;27;46494;-72
2023/10/08 05:07:40;;;;;;;2.88;1.85;;;19.10;46.00;;;;;;5107596;27;45326;-72
2023/10/08 05:10:32;;;;;;;3.63;2.13;;;19.10;46.00;;;;;;5107956;27;45310;-72
2023/10/08 05:13:15;;;;;;;4.20;2.38;;;19.10;46.00;;;;;;5107816;27;45298;-72
2023/10/08 05:15:50;;;;;;;2.83;1.98;;;19.10;46.00;;;;;;5107184;27;45323;-73
2023/10/08 05:18:23;;;;;;;2.75;2.00;;;19.10;46.10;;;;;;5107703;27;45465;-72
2023/10/08 05:21:14;;;;;;;2.85;1.95;;;19.10;46.10;;;;;;5107548;27;45287;-72
2023/10/08 05:23:53;;;;;;;4.03;2.15;;;19.10;46.10;;;;;;5107424;27;45297;-72
2023/10/08 05:26:31;;;;;;;4.38;2.67;;;19.10;46.20;;;;;;5107249;27;46506;-72
2023/10/08 05:29:29;;;;;;;5.28;2.00;;;19.00;46.10;;;;;;5107567;27;45330;-72
2023/10/08 05:32:17;;;;;;;3.47;2.00;;;19.00;46.10;;;;;;5106433;27;45326;-72
2023/10/08 05:34:42;;;;;;;2.97;2.20;;;19.00;46.10;;;;;;5107165;27;45398;-72
2023/10/08 05:39:55;;;;;;;2.88;1.88;;;19.00;46.10;;;;;;5107130;27;45311;-72
2023/10/08 05:42:31;;;;;;;3.55;2.22;;;19.00;46.20;;;;;;5107350;27;45421;-72
2023/10/08 05:45:14;;;;;;;4.53;1.80;;;19.00;46.20;;;;;;5107116;27;45346;-73
2023/10/08 05:47:51;;;;;;;5.38;2.15;;;19.00;46.10;;;;;;5106944;27;45253;-72
2023/10/08 05:50:39;;;;;;;3.17;1.80;;;19.00;46.20;;;;;;5107094;27;45397;-72
2023/10/08 05:53:19;;;;;;;2.83;1.58;;;19.00;46.20;;;;;;5107146;27;45378;-72
2023/10/08 05:56:00;;;;;;;2.95;1.95;;;18.90;46.20;;;;;;5107374;27;45212;-72
2023/10/08 05:58:45;;;;;;;3.17;1.85;;;18.90;46.20;;;;;;5107017;27;45343;-72
2023/10/08 06:01:26;;;;;;;2.88;1.90;;;18.90;46.10;;;;;;5107134;27;45338;-72
2023/10/08 06:04:00;;;;;;;3.30;1.80;;;18.90;46.20;;;;;;5106800;27;45390;-73
2023/10/08 06:06:37;;;;;;;3.17;1.42;;;18.90;46.20;;;;;;5107193;27;45518;-72
2023/10/08 06:09:21;;;;;;;3.80;2.25;;;18.90;46.70;;;;;;5106607;27;46281;-72
2023/10/08 06:12:08;;;;;;;2.35;1.90;;;18.90;46.10;;;;;;5106845;27;45343;-72
2023/10/08 06:14:52;;;;;;;3.83;1.98;;;18.90;46.20;;;;;;5107010;27;45438;-73
2023/10/08 06:17:55;;;;;;;2.65;1.90;;;18.90;46.20;;;;;;5105855;27;45382;-73
2023/10/08 06:20:25;;;;;;;2.45;1.75;;;18.90;46.20;;;;;;5106771;27;46319;-73
2023/10/08 06:22:54;;;;;;;4.43;2.10;;;18.90;46.10;;;;;;5106595;27;45300;-74
2023/10/08 06:25:24;;;;;;;4.65;1.70;;;18.90;46.20;;;;;;5106818;27;45264;-73
2023/10/08 06:27:55;;;;;;;2.92;1.80;;;18.90;46.20;;;;;;5106608;27;45353;-73
2023/10/08 06:30:23;;;;;;;3.08;1.98;;;18.90;46.20;;;;;;5105248;27;46673;-72
2023/10/08 06:32:50;;;;;;;3.05;1.75;;;18.90;46.10;;;;;;5105744;27;45410;-73
2023/10/08 06:35:18;;;;;;;3.65;2.25;;;18.90;46.10;;;;;;5106443;27;45318;-73
2023/10/08 06:37:49;;;;;;;2.33;1.80;;;18.90;46.70;;;;;;5106737;27;45114;-73
2023/10/08 06:43:21;;;;;;;2.25;1.55;;;18.90;46.10;;;;;;5124014;27;45389;-72
2023/10/08 06:45:52;;;;;;;4.35;2.00;;;18.90;46.20;;;;;;5123812;27;45287;-72
2023/10/08 06:48:20;;;;;;;3.17;2.08;;;18.90;46.10;;;;;;5124463;27;45414;-73
2023/10/08 06:50:47;;;;;;;3.08;1.98;;;19.00;46.20;;;;;;5124396;27;45421;-73
2023/10/08 06:53:15;;;;;;;4.15;1.95;;;18.90;46.10;;;;;;5123963;27;46264;-73
2023/10/08 06:55:42;;;;;;;2.13;1.63;;;18.90;46.10;;;;;;5124277;27;45311;-73
2023/10/08 06:58:11;;;;;;;3.03;2.10;;;18.90;46.00;;;;;;5124544;27;45343;-73
2023/10/08 07:00:39;;;;;;;2.97;1.98;;;19.00;46.10;;;;;;5124736;27;45525;-73
2023/10/08 07:03:08;;;;;;;3.80;1.95;;;19.00;46.20;;;;;;5124211;27;47018;-73
2023/10/08 07:05:40;;;;;;;4.55;2.00;;;19.00;46.10;;;;;;5124114;27;45486;-73
2023/10/08 07:08:12;;;;;;;3.05;2.15;;;19.00;46.10;;;;;;5124175;27;45373;-73
2023/10/08 07:10:40;;;;;;;2.97;1.83;;;19.00;46.10;;;;;;5124487;27;45497;-72
2023/10/08 07:13:08;;;;;;;2.47;1.73;;;19.00;46.10;;;;;;5123945;27;45387;-73
2023/10/08 07:15:38;;;;;;;4.28;2.00;;;19.00;46.10;;;;;;5123819;27;45342;-73
2023/10/08 07:18:12;;;;;;;3.65;1.85;;;19.00;46.10;;;;;;5124414;27;45346;-73
2023/10/08 07:20:41;;;;;;;3.58;1.88;;;19.00;46.10;;;;;;5124424;27;45320;-73
2023/10/08 07:23:18;;;;;;;3.67;2.10;;;19.00;46.10;;;;;;5123576;27;46625;-73
2023/10/08 07:25:51;;;;;;;2.13;1.67;;;19.00;46.10;;;;;;5123815;27;45281;-73
2023/10/08 07:28:19;;;;;;;2.60;1.90;;;19.00;46.10;;;;;;5124199;27;45415;-73
2023/10/08 07:30:49;;;;;;;3.22;1.75;;;19.00;46.10;;;;;;5124340;27;45390;-73
2023/10/08 07:33:19;;;;;;;3.33;1.60;;;19.00;46.00;;;;;;5123794;27;46908;-72
2023/10/08 07:35:54;;;;;;;3.72;1.70;;;19.10;46.10;;;;;;5123786;27;45388;-73
2023/10/08 07:38:22;;;;;;;3.78;1.90;;;19.00;46.00;;;;;;5124046;27;45348;-72
2023/10/08 07:40:49;;;;;;;2.90;1.63;;;19.10;46.00;;;;;;5124461;27;45446;-72
2023/10/08 07:43:20;;;;;;;3.95;1.98;;;19.10;46.00;;;;;;5124183;27;45673;-73
2023/10/08 07:45:48;;;;;;;2.13;1.80;;;19.10;46.60;;;;;;5124293;27;45377;-75
2023/10/08 07:48:15;;;;;;;4.55;2.30;;;19.10;46.00;;;;;;5123888;27;45186;-72
2023/10/08 07:50:45;;;;;;;3.35;1.83;;;19.10;46.00;;;;;;5125010;27;45322;-74
2023/10/08 07:53:17;;;;;;;4.05;2.00;;;19.10;45.90;;;;;;5118588;27;46293;-73
2023/10/08 07:55:46;;;;;;;2.97;1.60;;;19.20;46.00;;;;;;5110289;27;45401;-72
2023/10/08 07:58:15;;;;;;;2.50;1.88;;;19.20;45.90;;;;;;5110538;27;45296;-72
2023/10/08 08:00:51;;;;;;;2.88;1.77;;;19.20;45.90;;;;;;5110644;27;45426;-72
2023/10/08 08:03:19;;;;;;;3.28;1.90;;;19.20;45.90;;;;;;5110347;27;45427;-74
2023/10/08 08:05:48;;;;;;;4.32;1.67;;;19.20;45.80;;;;;;5109833;27;45441;-73
2023/10/08 08:08:17;;;;;;;2.72;1.70;;;19.30;45.90;;;;;;5111042;27;45293;-73
2023/10/08 08:10:45;;;;;;;6.28;1.70;;;19.20;45.80;;;;;;5110636;27;45340;-73
2023/10/08 08:13:13;;;;;;;3.15;2.00;;;19.30;45.90;;;;;;5111221;27;45481;-75
2023/10/08 08:15:43;;;;;;;3.55;2.00;;;19.30;45.90;;;;;;5110891;27;45348;-74
2023/10/08 08:18:22;;;;;;;2.75;1.90;;;19.30;45.90;;;;;;5111424;27;45334;-72
2023/10/08 08:20:50;;;;;;;4.18;1.60;;;19.30;45.80;;;;;;5110881;27;45430;-73
2023/10/08 08:23:17;;;;;;;3.78;1.60;;;19.40;45.80;;;;;;5110480;27;46607;-73
2023/10/08 08:25:55;;;;;;;2.78;1.77;;;19.40;45.80;;;;;;5110004;27;45487;-74
2023/10/08 08:28:24;;;;;;;2.55;1.90;;;19.40;45.80;;;;;;5110003;27;45406;-71
2023/10/08 08:30:52;;;;;;;3.63;1.80;;;19.40;45.80;;;;;;5110086;27;45334;-72
2023/10/08 08:33:22;;;;;;;4.22;2.10;;;19.50;45.80;;;;;;5110408;27;45715;-71
2023/10/08 08:36:00;;;;;;;3.58;1.50;;;19.50;45.80;;;;;;5109882;27;45319;-73
2023/10/08 08:38:29;;;;;;;3.45;1.90;;;19.50;45.80;;;;;;5110786;27;45324;-72
2023/10/08 08:41:06;;;;;;;2.05;1.60;;;19.50;45.70;;;;;;5110636;27;45543;-72
2023/10/08 08:43:34;;;;;;;2.42;1.48;;;19.50;45.70;;;;;;5109999;27;45337;-74
2023/10/08 08:46:03;;;;;;;2.13;1.90;;;19.60;45.70;;;;;;5110766;27;45342;-73
2023/10/08 08:48:30;;;;;;;2.47;1.73;;;19.60;45.70;;;;;;5110256;27;45316;-72
2023/10/08 08:50:58;;;;;;;3.58;2.13;;;19.60;45.70;;;;;;5109129;27;45413;-73
2023/10/08 08:53:26;;;;;;;2.60;1.65;;;19.60;45.70;;;;;;5108783;27;45907;-73
2023/10/08 08:55:53;;;;;;;2.13;1.67;;;19.60;45.70;;;;;;5108513;27;45442;-71
2023/10/08 08:58:21;;;;;;;3.80;1.80;;;19.60;45.70;;;;;;5108512;27;45291;-72
2023/10/08 09:00:48;;;;;;;2.92;1.80;;;19.70;45.80;;;;;;5109181;27;45473;-73
2023/10/08 09:03:15;;;;;;;1.92;1.67;;;19.70;45.80;;;;;;5108276;27;45592;-72
2023/10/08 09:05:49;;;;;;;3.00;1.75;;;19.70;45.80;;;;;;5107519;27;45337;-73
2023/10/08 09:08:18;;;;;;;3.92;2.15;;;19.80;45.80;;;;;;5109077;27;45337;-72
2023/10/08 09:10:51;;;;;;;3.67;1.73;;;19.80;45.70;;;;;;5108819;27;45556;-72
2023/10/08 09:13:20;;;;;;;2.75;1.70;;;19.80;45.70;;;;;;5108520;27;46649;-73
2023/10/08 09:15:47;;;;;;;3.70;2.00;;;19.90;45.60;;;;;;5108358;27;45302;-72
2023/10/08 09:18:14;;;;;;;3.00;1.70;;;19.90;45.50;;;;;;5108401;27;45205;-73
2023/10/08 09:20:42;;;;;;;3.10;1.88;;;19.90;45.50;;;;;;5102532;27;45110;-72
2023/10/08 09:23:11;;;;;;;3.78;1.80;;;20.00;45.60;;;;;;5097060;27;46336;-72
2023/10/08 09:25:40;;;;;;;2.97;1.52;;;20.00;45.50;;;;;;5102206;27;45269;-73
2023/10/08 09:28:07;;;;;;;3.75;1.80;;;20.00;46.20;;;;;;5108517;27;45301;-72
2023/10/08 09:30:37;;;;;;;2.63;1.98;;;20.00;45.80;;;;;;5089115;27;45536;-72
2023/10/08 09:33:06;;;;;;;5.20;2.28;;;20.10;45.90;;;;;;5087582;28;46671;-72
2023/10/08 09:35:32;;;;;;;3.55;1.70;;;20.10;45.90;;;;;;5088226;28;45375;-72
2023/10/08 09:37:59;;;;;;;2.88;2.00;;;20.20;45.80;;;;;;5088204;28;45385;-72
2023/10/08 09:40:26;;;;;;;11.93;2.80;;;20.20;45.90;;;;;;5088327;28;45344;-73
2023/10/08 09:42:54;;;;;;;4.15;1.95;;;20.30;45.70;;;;;;5087239;27;46746;-72
2023/10/08 09:45:21;;;;;;;3.08;1.83;;;20.30;45.60;;;;;;5084881;28;45269;-72
2023/10/08 09:47:51;;;;;;;2.90;1.98;;;20.40;45.70;;;;;;5087286;28;45287;-72
2023/10/08 09:50:18;;;;;;;2.72;1.90;;;20.50;45.60;;;;;;5087808;28;45138;-72
2023/10/08 09:52:50;;;;;;;3.55;2.28;;;20.50;45.60;;;;;;5088138;28;45336;-72
2023/10/08 09:55:20;;;;;;;3.15;1.70;;;20.60;45.60;;;;;;5088013;28;45335;-71
2023/10/08 09:57:47;;;;;;;3.97;1.90;;;20.60;45.60;;;;;;5088002;27;45131;-71
2023/10/08 10:00:18;;;;;;;3.55;1.80;;;20.70;45.60;;;;;;5088705;28;45350;-72
2023/10/08 10:02:45;;;;;;;3.65;2.20;;;20.70;45.60;;;;;;5088002;28;47552;-72
2023/10/08 10:05:12;;;;;;;2.75;1.75;;;20.70;45.60;;;;;;5088339;28;45189;-71
2023/10/08 10:07:43;;;;;;;2.47;1.90;;;20.80;45.60;;;;;;5087986;28;45249;-72
2023/10/08 10:10:30;;;;;;;3.08;1.95;;;20.90;45.50;;;;;;5087866;28;45234;-71
2023/10/08 10:13:00;;;;;;;4.05;1.90;;;21.00;45.50;;;;;;5087580;27;46697;-72
2023/10/08 10:15:30;;;;;;;3.33;2.15;;;21.00;45.50;;;;;;5087442;28;45346;-73
2023/10/08 10:18:00;;;;;;;5.03;2.05;;;21.00;45.60;;;;;;5088151;28;45340;-72
2023/10/08 10:20:27;;;;;;;3.05;1.98;;;21.00;45.70;;;;;;5088284;28;45489;-71
2023/10/08 10:22:54;;;;;;;3.35;2.05;;;21.00;45.80;;;;;;5101680;27;46909;-71
2023/10/08 10:25:36;;;;;;;2.63;1.90;;;21.00;45.90;;;;;;5107629;27;45589;-70
2023/10/08 10:28:25;;;;;;;4.25;2.08;;;21.00;45.80;;;;;;5107573;27;45222;-71
2023/10/08 10:30:53;;;;;;;3.88;2.25;;;21.10;45.90;;;;;;5107825;27;45211;-70
2023/10/08 10:33:20;;;;;;;3.50;1.95;;;21.10;46.00;;;;;;5107542;27;47889;-71
2023/10/08 10:35:52;;;;;;;3.17;2.05;;;21.10;46.00;;;;;;5107767;27;45275;-70
2023/10/08 10:38:22;;;;;;;3.42;2.03;;;21.20;46.10;;;;;;5090408;27;45568;-69
2023/10/08 10:40:56;;;;;;;4.45;2.05;;;21.20;46.20;;;;;;5086681;27;45406;-70
2023/10/08 10:43:31;;;;;;;2.78;1.90;;;21.30;46.10;;;;;;5086555;27;46420;-70
2023/10/08 10:46:19;;;;;;;2.22;2.03;;;21.30;46.80;;;;;;5086600;27;45287;-70
2023/10/08 10:48:57;;;;;;;5.20;1.98;;;21.40;46.00;;;;;;5086680;27;45198;-70
2023/10/08 10:51:24;;;;;;;5.35;1.90;;;21.60;45.90;;;;;;5086786;27;45303;-70
2023/10/08 10:53:57;;;;;;;3.47;2.05;;;21.60;45.60;;;;;;5086568;27;46631;-71
2023/10/08 10:56:29;;;;;;;3.13;1.73;;;21.70;45.70;;;;;;5086792;27;45248;-70
2023/10/08 10:58:59;;;;;;;2.63;1.95;;;21.70;45.70;;;;;;5086678;27;45294;-71
2023/10/08 11:01:29;;;;;;;6.00;1.90;;;21.80;45.50;;;;;;5086916;27;45533;-71
2023/10/08 11:03:57;;;;;;;3.47;2.30;;;22.00;45.20;;;;;;5086677;27;45296;-71
2023/10/08 11:06:25;;;;;;;4.53;2.22;;;22.20;44.70;;;;;;5086552;27;45364;-69
2023/10/08 11:08:52;;;;;;;3.30;2.15;;;22.40;44.40;;;;;;5086849;27;45280;-71
2023/10/08 11:11:19;;;;;;;4.68;2.25;;;22.60;44.20;;;;;;5086922;27;45363;-71
2023/10/08 11:13:52;;;;;;;3.65;2.20;;;22.70;44.00;;;;;;5101290;27;45865;-70
2023/10/08 11:16:21;;;;;;;6.10;2.22;;;22.90;43.80;;;;;;5107012;27;45189;-72
2023/10/08 11:18:50;;;;;;;4.68;2.40;;;22.90;44.30;;;;;;5107019;27;45299;-74
2023/10/08 11:21:22;;;;;;;6.00;2.65;;;23.00;43.70;;;;;;5107316;27;45343;-75
2023/10/08 11:23:55;;;;;;;3.78;2.28;;;23.00;43.80;;;;;;5107392;27;45461;-74
2023/10/08 11:26:31;;;;;;;6.63;2.40;;;23.00;44.30;;;;;;5108945;27;45233;-78
2023/10/08 11:29:00;;;;;;;4.85;2.55;;;23.00;44.40;;;;;;5110190;27;45280;-78
2023/10/08 11:31:28;;;;;;;13.07;3.40;;;23.00;44.50;;;;;;5091916;27;45339;-76
2023/10/08 11:34:00;;;;;;;7.57;2.63;;;23.20;44.40;;;;;;5093829;27;45335;-74
2023/10/08 11:36:28;;;;;;;4.57;2.10;;;23.40;44.00;;;;;;5116473;27;45449;-75
2023/10/08 11:39:00;;;;;;;6.03;2.83;;;23.50;43.50;;;;;;5115625;27;45371;-73
2023/10/08 11:41:28;;;;;;;5.70;2.28;;;23.60;43.20;;;;;;5112512;27;45387;-74
2023/10/08 11:43:57;;;;;;;5.93;2.83;;;23.70;43.40;;;;;;5115815;27;47578;-75
2023/10/08 11:46:27;;;;;;;4.68;2.60;;;23.80;42.80;;;;;;5107024;27;45501;-69
2023/10/08 11:48:57;;;;;;;7.00;2.97;;;24.00;42.70;;;;;;5109276;27;45356;-76
2023/10/08 11:51:25;;;;;;;4.97;2.72;;;24.00;42.70;;;;;;5112340;27;45260;-76
2023/10/08 11:53:53;;;;;;;4.85;2.40;;;24.20;42.50;;;;;;5109816;27;45408;-71
2023/10/08 11:56:23;;;;;;;6.72;2.95;;;24.20;42.20;;;;;;5110229;27;45292;-70
2023/10/08 11:58:51;;;;;;;6.93;3.00;;;24.30;41.70;;;;;;5110903;27;45396;-71
2023/10/08 12:01:18;;;;;;;6.22;2.80;;;24.40;42.00;;;;;;5109661;27;45450;-77
2023/10/08 12:03:45;;;;;;;6.10;2.50;;;24.50;42.00;;;;;;5111608;27;45481;-75
2023/10/08 12:06:15;;;;;;;4.15;2.63;;;24.60;41.70;;;;;;5112108;27;45208;-76
2023/10/08 12:08:45;;;;;;;6.15;2.60;;;24.70;41.70;;;;;;5105503;27;45641;-74
2023/10/08 12:11:16;;;;;;;6.80;2.72;;;24.80;41.50;;;;;;5116805;27;45132;-74
2023/10/08 12:13:47;;;;;;;7.57;3.15;;;24.90;41.70;;;;;;5111515;27;45426;-73
2023/10/08 12:16:18;;;;;;;5.20;2.80;;;25.00;41.50;;;;;;5115628;27;45192;-74
2023/10/08 12:18:48;;;;;;;5.55;2.97;;;24.90;41.70;;;;;;5103766;27;45295;-75
2023/10/08 12:21:17;;;;;;;5.65;2.47;;;24.90;42.40;;;;;;5115168;27;45660;-74
2023/10/08 12:23:46;;;;;;;4.80;2.20;;;24.90;41.90;;;;;;5121427;27;46515;-74
2023/10/08 12:26:15;;;;;;;5.13;2.30;;;24.90;42.00;;;;;;5115269;27;45382;-75
2023/10/08 12:28:44;;;;;;;6.25;2.72;;;25.00;41.90;;;;;;5110514;27;45283;-70
2023/10/08 12:31:12;;;;;;;6.38;2.60;;;25.00;41.80;;;;;;5111412;27;45204;-74
2023/10/08 12:33:40;;;;;;;6.18;2.53;;;25.00;41.90;;;;;;5103011;27;45592;-71
2023/10/08 12:36:11;;;;;;;5.90;2.60;;;25.00;42.00;;;;;;5105810;27;45385;-74
2023/10/08 12:38:38;;;;;;;6.82;2.90;;;25.00;42.10;;;;;;5113046;27;45381;-74
2023/10/08 12:41:11;;;;;;;4.35;2.50;;;25.00;42.10;;;;;;5110514;27;45595;-67
2023/10/08 12:43:38;;;;;;;5.97;2.70;;;25.10;42.10;;;;;;5107274;27;45520;-77
2023/10/08 12:46:10;;;;;;;6.32;2.45;;;25.30;41.90;;;;;;5108479;27;45221;-75
2023/10/08 12:48:37;;;;;;;10.23;3.05;;;25.40;41.80;;;;;;5108337;27;45297;-74
2023/10/08 12:51:06;;;;;;;6.88;2.97;;;25.50;41.30;;;;;;5109485;27;45370;-76
2023/10/08 12:53:34;;;;;;;3.25;2.28;;;25.50;41.50;;;;;;5109126;27;47383;-78
2023/10/08 12:56:05;;;;;;;6.85;2.85;;;25.50;41.50;;;;;;5107593;27;45455;-75
2023/10/08 12:58:39;;;;;;;7.93;2.80;;;25.40;41.70;;;;;;5107590;27;45399;-72
2023/10/08 13:01:09;;;;;;;9.20;2.83;;;25.40;41.90;;;;;;5108883;27;45328;-73
2023/10/08 13:03:41;;;;;;;7.15;2.28;;;25.50;42.60;;;;;;5108633;27;46865;-73
2023/10/08 13:06:11;;;;;;;7.50;2.78;;;25.70;41.60;;;;;;5102225;27;45446;-75
2023/10/08 13:08:38;;;;;;;4.90;2.38;;;25.80;40.90;;;;;;5108031;27;45248;-80
2023/10/08 13:11:04;;;;;;;6.57;2.35;;;26.00;40.40;;;;;;5109523;27;45486;-74
2023/10/08 13:13:33;;;;;;;6.45;2.90;;;26.10;39.90;;;;;;5113875;27;45526;-76